Shreveport, LA

2:41 AM CST on February 01, 2015 (GMT -0600)
Pierremont 2 | Change Station
CLOSE
Current Station
Personal Weather Station
Location: Shreveport, LA
Elevation: 167 ft
Nearby Weather Stations

Elev 167 ft 32.45 °N, 93.74 °W | Updated 1 minute ago

Overcast
Overcast
55.2 °F
Feels Like 55.2 °F
N
0.0
Wind Variable Wind from SE
Gusts 2.0 mph

Today
High -- | Low -- °F
--% Chance of Precip.
Yesterday
High -- | Low -- °F
Precip. -- in
7:09 AM 5:47 PM
Waxing Gibbous, 94% visible
Pressure 29.94 in
Visibility 10.0 miles
Clouds Mostly Cloudy 1900 ft
Mostly Cloudy 3100 ft
Overcast 9500 ft
Dew Point 50 °F
Humidity 82%
Rainfall 0.00 in
Snow Depth Not available.
UV 0 out of 12
Pollen 7.60 out of 12
Air Quality Not available.
Flu Activity Not available.
METAR KDTN 010753Z AUTO 16010KT 10SM -RA BKN019 BKN031 OVC095 12/09 A2995 RMK AO2 RAB50 SLP139 P0000 T01220089 TSNO

More Conditions Fewer Conditions

Pressure 29.94 in
Visibility 10.0 miles
Clouds Mostly Cloudy 1900 ft
Mostly Cloudy 3100 ft
Overcast 9500 ft
Dew Point 50 °F
Humidity 82%
Rainfall 0.00 in
Snow Depth Not available.
UV 0 out of 12
Pollen 7.60 out of 12
Air Quality Not available.
Flu Activity Not available.
METAR KDTN 010753Z AUTO 16010KT 10SM -RA BKN019 BKN031 OVC095 12/09 A2995 RMK AO2 RAB50 SLP139 P0000 T01220089 TSNO

More Conditions Fewer Conditions

Nowcast | as of 1:31 am CST on February 1, 2015

Areas of light rain will continue to intermittently affect parts of the region during the overnight hours. Rainfall amounts will be light...generally less than a tenth of an inch through 4 am.

×

10-Day Weather Forecast

Almanac

Astronomy

Feb. 01, 2015 Rise Set
Actual Time
Civil Twilight
Nautical Twilight
Astronomical Twilight
Moon
Length of Visible Light
Length of Day
Tomorrow will be .
, % of the Moon is Illuminated

Today's Extremes

State Highs State Lows

Community

WunderPhotos

Upload Photos

1,792,338 photos uploaded!

WunderBlogs® & News

Nearby

Air Quality

  Air Quality AQ Index Pollutant
Not available.

Snow Depth

Station Depth Elevation

Earthquake Activity

City Distance Mag. Time & Date
Minimum magnitude displayed is 2.5.

Coastal Water Temperatures

Place Temperature

Nearby Weather Stations